This is the latest recevied weather packets stored in our database for station/object IK2ILW-4. If no packets are shown the sender has not sent any weather packets the latest 10 day(s).
| Time | Temp. | Humidity | Pressure | Rain* | Wind** | Luminosity | Snow |
|---|---|---|---|---|---|---|---|
| 1787929973 | 18.89° C | 76% | 1020.7 hPa | 1.02 mm | - | 21 W/m² | - |
| 1787929658 | 18.89° C | 81% | 1020.7 hPa | 1.02 mm | - | 40 W/m² | - |
| 1787929356 | 17.78° C | 83% | 1020.7 hPa | 1.02 mm | - | 44 W/m² | - |
| 1787929055 | 17.78° C | 80% | 1020 hPa | 1.02 mm | - | 51 W/m² | - |
| 1787928769 | 19.44° C | 73% | 1020 hPa | 1.02 mm | - | 58 W/m² | - |
| 1787928457 | 21.67° C | 70% | 1020 hPa | 0.76 mm | - | 5 W/m² | - |
| 1787928157 | 21.67° C | 70% | 1020.3 hPa | 0.76 mm | - | 49 W/m² | - |
| 1787927869 | 22.22° C | 69% | 1020.3 hPa | 0.76 mm | - | 39 W/m² | - |
| 1787927556 | 22.22° C | 70% | 1020.3 hPa | 0.76 mm | - | 151 W/m² | - |
| 1787927263 | 22.22° C | 70% | 1021.2 hPa | 0.76 mm | - | 221 W/m² | - |
| 1787926951 | 22.22° C | 69% | 1021.2 hPa | 0.76 mm | - | 81 W/m² | - |
| 1787926659 | 22.22° C | 70% | 1021.2 hPa | 0.76 mm | - | 107 W/m² | - |
| 1787926355 | 22.22° C | 70% | 1021.3 hPa | 0.76 mm | - | 56 W/m² | - |
| 1787926065 | 22.22° C | 71% | 1021.3 hPa | 0.76 mm | - | 81 W/m² | - |
| 1787925754 | 22.22° C | 70% | 1021.3 hPa | 0.76 mm | - | 134 W/m² | - |
| 1787925471 | 22.22° C | 70% | 1021.3 hPa | 0.76 mm | - | 56 W/m² | - |
| 1787925154 | 22.22° C | 70% | 1021.3 hPa | 0.76 mm | - | 69 W/m² | - |
| 1787924855 | 23.33° C | 65% | 1021.3 hPa | 0.76 mm | - | 91 W/m² | - |
| 1787924573 | 23.33° C | 65% | 1021.3 hPa | 0.76 mm | - | 155 W/m² | - |
| 1787924269 | 23.89° C | 62% | 1021.3 hPa | 0.76 mm | - | 114 W/m² | - |
| 1787923973 | 23.89° C | 63% | 1021.3 hPa | 0.76 mm | - | 134 W/m² | - |
| 1787923673 | 23.89° C | 64% | 1021.5 hPa | 0.76 mm | - | 260 W/m² | - |
| 1787923372 | 23.33° C | 63% | 1021.5 hPa | 0.76 mm | - | 411 W/m² | - |
| 1787923058 | 23.33° C | 64% | 1021.5 hPa | 0.76 mm | - | 262 W/m² | - |
| 1787922768 | 23.89° C | 63% | 1021.8 hPa | 0.76 mm | - | 234 W/m² | - |
* Rain since midnight (hover to see other rain measurements)
** Current wind speed in m/s (hover to see current wind gust speed)